Time;durP1;ratioP1;P1;durP2;ratioP2;P2;SDS_P1;SDS_P2;PMS_P1;PMS_P2;Temp;Humidity;BMP_temperature;BMP_pressure;BME280_temperature;BME280_humidity;BME280_pressure;Samples;Min_cycle;Max_cycle;Signal;HPM_P1;HPM_P2
2023/03/07 00:03:58;;;;;;;34.55;11.20;;;;;;;;;;6242216;23;20548;-95
2023/03/07 00:09:20;;;;;;;34.15;9.73;;;;;;;;;;6162147;23;20030;-94
2023/03/07 00:11:54;;;;;;;29.73;10.15;;;;;;;;;;6227909;23;20669;-95
2023/03/07 00:14:21;;;;;;;15.70;6.28;;;;;;;;;;6227621;23;20015;-95
2023/03/07 00:16:50;;;;;;;20.60;7.25;;;;;;;;;;6226842;23;20346;-95
2023/03/07 00:19:17;;;;;;;15.63;6.28;;;;;;;;;;6227101;23;20319;-95
2023/03/07 00:21:46;;;;;;;25.77;8.05;;;;;;;;;;6201252;23;20004;-95
2023/03/07 00:24:23;;;;;;;18.38;6.70;;;;;;;;;;6200434;23;20008;-95
2023/03/07 00:26:49;;;;;;;14.75;5.40;;;;;;;;;;6201514;23;20437;-96
2023/03/07 00:29:23;;;;;;;14.30;5.75;;;;;;;;;;6226719;23;20012;-95
2023/03/07 00:31:50;;;;;;;10.63;4.78;;;;;;;;;;6202745;23;20465;-96
2023/03/07 00:35:20;;;;;;;9.85;3.97;;;;;;;;;;6226888;23;20008;-95
2023/03/07 00:37:18;;;;;;;9.07;4.20;;;;;;;;;;6234600;23;20043;-95
2023/03/07 00:40:07;;;;;;;23.58;5.45;;;;;;;;;;6200425;23;20015;-95
2023/03/07 00:42:40;;;;;;;15.20;4.18;;;;;;;;;;6254114;23;20059;-95
2023/03/07 00:45:12;;;;;;;10.98;3.20;;;;;;;;;;6202596;23;20050;-95
2023/03/07 00:47:41;;;;;;;14.30;3.42;;;;;;;;;;6225346;23;20004;-94
2023/03/07 00:50:25;;;;;;;8.13;3.33;;;;;;;;;;6202657;23;20015;-95
2023/03/07 00:52:57;;;;;;;6.03;2.05;;;;;;;;;;6226019;23;20016;-95
2023/03/07 00:55:37;;;;;;;22.70;3.53;;;;;;;;;;6204696;22;20073;-95
2023/03/07 00:58:04;;;;;;;18.98;3.00;;;;;;;;;;6227596;23;20008;-95
2023/03/07 01:00:46;;;;;;;;;;;;;;;;;;;;;
2023/03/07 01:03:15;;;;;;;3.95;1.23;;;;;;;;;;6176086;23;20028;-95
2023/03/07 01:06:10;;;;;;;17.92;3.00;;;;;;;;;;6225058;23;20457;-95
2023/03/07 01:08:58;;;;;;;6.90;2.90;;;;;;;;;;6254353;23;20008;-96
2023/03/07 01:11:54;;;;;;;18.45;2.53;;;;;;;;;;6227065;23;20058;-95
2023/03/07 01:17:43;;;;;;;20.20;2.75;;;;;;;;;;6107044;23;20037;-95
2023/03/07 01:23:21;;;;;;;15.63;2.80;;;;;;;;;;6204366;22;20027;-95
2023/03/07 01:26:15;;;;;;;8.77;2.47;;;;;;;;;;6216962;23;20004;-95
2023/03/07 01:32:39;;;;;;;23.70;3.00;;;;;;;;;;6141954;23;20010;-94
2023/03/07 01:41:33;;;;;;;;;;;;;;;;;;;;;
2023/03/07 01:49:49;;;;;;;21.10;2.35;;;;;;;;;;6250927;22;19919;-92
2023/03/07 01:52:28;;;;;;;20.75;2.08;;;;;;;;;;6275196;22;20019;-92
2023/03/07 01:55:05;;;;;;;16.05;1.48;;;;;;;;;;6248703;22;20008;-92
2023/03/07 01:57:32;;;;;;;4.68;1.05;;;;;;;;;;6248836;22;20007;-91
2023/03/07 02:00:04;;;;;;;24.30;1.88;;;;;;;;;;6249872;22;20070;-92
2023/03/07 02:02:37;;;;;;;11.68;1.30;;;;;;;;;;6249853;22;20014;-91
2023/03/07 02:05:31;;;;;;;10.13;0.95;;;;;;;;;;6228361;22;20038;-93
2023/03/07 02:08:00;;;;;;;9.93;1.15;;;;;;;;;;6253661;22;20083;-94
2023/03/07 02:10:26;;;;;;;13.32;2.15;;;;;;;;;;6260154;22;20011;-93
2023/03/07 02:12:53;;;;;;;14.02;1.75;;;;;;;;;;6261259;22;20019;-93
2023/03/07 02:15:19;;;;;;;12.70;2.15;;;;;;;;;;6258094;22;20071;-93
2023/03/07 02:17:46;;;;;;;10.95;1.30;;;;;;;;;;6259701;22;20413;-93
2023/03/07 02:20:30;;;;;;;25.52;2.28;;;;;;;;;;6230133;22;20018;-92
2023/03/07 02:22:57;;;;;;;8.20;1.25;;;;;;;;;;6255255;22;20004;-96
2023/03/07 02:25:23;;;;;;;6.82;1.00;;;;;;;;;;6253830;22;19999;-96
2023/03/07 02:27:52;;;;;;;12.63;1.02;;;;;;;;;;6256284;22;20460;-94
2023/03/07 02:30:18;;;;;;;10.10;1.52;;;;;;;;;;6254059;22;20074;-96
2023/03/07 02:33:01;;;;;;;9.68;1.17;;;;;;;;;;6255402;22;20004;-95
2023/03/07 02:35:28;;;;;;;10.55;1.25;;;;;;;;;;6232539;22;20011;-95
2023/03/07 02:38:04;;;;;;;2.83;0.68;;;;;;;;;;6226433;22;20014;-96
2023/03/07 02:40:32;;;;;;;14.48;1.40;;;;;;;;;;6251349;22;20004;-96
2023/03/07 02:43:03;;;;;;;28.98;3.33;;;;;;;;;;6253045;22;20004;-96
2023/03/07 02:45:29;;;;;;;10.75;0.90;;;;;;;;;;6251219;22;20061;-94
2023/03/07 02:47:58;;;;;;;16.60;1.85;;;;;;;;;;6226268;22;20010;-94
2023/03/07 02:50:30;;;;;;;16.77;1.85;;;;;;;;;;6250598;22;20102;-95
2023/03/07 02:52:57;;;;;;;19.65;2.50;;;;;;;;;;6277777;22;20088;-96
2023/03/07 02:55:26;;;;;;;17.15;1.63;;;;;;;;;;6224958;22;20094;-96
2023/03/07 02:57:53;;;;;;;18.92;1.92;;;;;;;;;;6225198;22;20419;-96
2023/03/07 03:00:19;;;;;;;13.05;1.38;;;;;;;;;;6275631;22;20422;-96
2023/03/07 03:02:45;;;;;;;7.13;1.10;;;;;;;;;;6277138;22;20057;-95
2023/03/07 03:05:12;;;;;;;16.67;1.52;;;;;;;;;;6224602;22;20014;-95
2023/03/07 03:07:38;;;;;;;10.55;1.73;;;;;;;;;;6225864;22;20376;-95
2023/03/07 03:10:06;;;;;;;8.88;1.08;;;;;;;;;;6224411;22;20011;-94
2023/03/07 03:12:33;;;;;;;2.83;0.80;;;;;;;;;;6275961;22;20012;-95
2023/03/07 03:14:59;;;;;;;3.00;0.85;;;;;;;;;;6224951;22;20019;-95
2023/03/07 03:17:25;;;;;;;6.10;1.00;;;;;;;;;;6225693;22;20037;-95
2023/03/07 03:19:55;;;;;;;5.30;0.80;;;;;;;;;;6275856;22;20008;-93
2023/03/07 03:22:21;;;;;;;14.93;0.93;;;;;;;;;;6274530;22;20008;-94
2023/03/07 03:24:48;;;;;;;11.00;1.77;;;;;;;;;;6275124;22;20047;-94
2023/03/07 03:27:14;;;;;;;11.25;1.55;;;;;;;;;;6275829;22;20064;-94
2023/03/07 03:29:42;;;;;;;5.50;1.17;;;;;;;;;;6275510;22;20011;-94
2023/03/07 03:32:08;;;;;;;13.00;1.23;;;;;;;;;;6275527;22;20018;-95
2023/03/07 03:34:34;;;;;;;2.83;0.75;;;;;;;;;;6275947;22;20000;-93
2023/03/07 03:37:01;;;;;;;8.88;0.57;;;;;;;;;;6224005;22;20011;-94
2023/03/07 03:39:28;;;;;;;6.38;0.95;;;;;;;;;;6223754;22;20004;-95
2023/03/07 03:41:55;;;;;;;12.95;1.33;;;;;;;;;;6225585;22;20051;-95
2023/03/07 03:44:22;;;;;;;8.65;0.77;;;;;;;;;;6221393;22;20016;-94
2023/03/07 03:46:51;;;;;;;13.73;1.20;;;;;;;;;;6222887;22;20018;-95
2023/03/07 03:49:18;;;;;;;9.07;1.45;;;;;;;;;;6224973;22;20031;-95
2023/03/07 03:51:44;;;;;;;9.90;1.38;;;;;;;;;;6274271;22;20007;-95
2023/03/07 03:54:10;;;;;;;0.43;0.35;;;;;;;;;;6273741;22;20003;-95
2023/03/07 03:56:37;;;;;;;15.65;3.15;;;;;;;;;;6221782;22;20014;-96
2023/03/07 03:59:03;;;;;;;2.50;0.75;;;;;;;;;;6223706;22;20011;-96
2023/03/07 04:01:29;;;;;;;6.72;1.58;;;;;;;;;;6272064;22;20007;-95
2023/03/07 04:04:01;;;;;;;11.43;1.85;;;;;;;;;;6222104;22;20067;-95
2023/03/07 04:06:29;;;;;;;2.63;0.63;;;;;;;;;;6272651;22;20422;-96
2023/03/07 04:08:55;;;;;;;8.50;1.20;;;;;;;;;;6272354;22;20022;-95
2023/03/07 04:11:22;;;;;;;7.32;1.83;;;;;;;;;;6247166;22;20070;-95
2023/03/07 04:13:57;;;;;;;3.53;0.82;;;;;;;;;;6272508;22;20023;-96
2023/03/07 04:16:23;;;;;;;20.63;1.70;;;;;;;;;;6273976;22;20008;-96
2023/03/07 04:18:51;;;;;;;11.70;0.93;;;;;;;;;;6223169;22;20022;-96
2023/03/07 04:21:20;;;;;;;5.70;0.65;;;;;;;;;;6249961;22;20011;-96
2023/03/07 04:23:48;;;;;;;9.20;0.95;;;;;;;;;;6223848;22;20014;-95
2023/03/07 04:26:15;;;;;;;11.85;1.83;;;;;;;;;;6274635;22;20064;-96
2023/03/07 04:28:44;;;;;;;11.23;1.33;;;;;;;;;;6274641;22;20090;-95
2023/03/07 04:31:27;;;;;;;9.35;1.00;;;;;;;;;;6274710;22;20008;-95
2023/03/07 04:33:54;;;;;;;7.15;0.90;;;;;;;;;;6225404;22;20008;-95
2023/03/07 04:36:24;;;;;;;8.02;1.05;;;;;;;;;;6275602;22;20031;-95
2023/03/07 04:38:50;;;;;;;9.07;1.30;;;;;;;;;;6273781;22;20008;-95
2023/03/07 04:41:18;;;;;;;13.60;0.90;;;;;;;;;;6274423;22;20010;-95
2023/03/07 04:43:44;;;;;;;2.00;0.75;;;;;;;;;;6275459;22;20207;-96
2023/03/07 04:46:12;;;;;;;5.47;0.85;;;;;;;;;;6225423;22;20059;-95
2023/03/07 04:48:39;;;;;;;9.45;1.65;;;;;;;;;;6227243;22;20024;-95
2023/03/07 04:51:08;;;;;;;10.23;1.02;;;;;;;;;;6251095;22;20043;-95
2023/03/07 04:53:40;;;;;;;5.82;1.67;;;;;;;;;;6252447;22;20007;-95
2023/03/07 04:56:07;;;;;;;2.85;0.95;;;;;;;;;;6251975;22;20010;-94
2023/03/07 04:58:35;;;;;;;14.13;1.33;;;;;;;;;;6249696;22;20027;-94
2023/03/07 05:01:01;;;;;;;6.38;1.70;;;;;;;;;;6252735;22;20014;-94
2023/03/07 05:03:31;;;;;;;17.92;1.50;;;;;;;;;;6254155;22;20000;-95
2023/03/07 05:06:00;;;;;;;7.38;1.30;;;;;;;;;;6254032;22;20437;-95
2023/03/07 05:08:27;;;;;;;6.10;1.17;;;;;;;;;;6255157;22;20004;-95
2023/03/07 05:10:53;;;;;;;10.10;1.13;;;;;;;;;;6256563;22;20015;-96
2023/03/07 05:13:20;;;;;;;1.98;0.52;;;;;;;;;;6230069;22;20092;-96
2023/03/07 05:15:50;;;;;;;11.73;0.80;;;;;;;;;;6253978;22;20011;-94
2023/03/07 05:18:17;;;;;;;5.07;0.90;;;;;;;;;;6254575;22;20014;-93
2023/03/07 05:20:49;;;;;;;7.38;1.23;;;;;;;;;;6232223;22;20073;-95
2023/03/07 05:23:15;;;;;;;1.40;0.55;;;;;;;;;;6233423;22;20015;-94
2023/03/07 05:25:41;;;;;;;11.45;1.33;;;;;;;;;;6260261;22;20433;-92
2023/03/07 05:28:07;;;;;;;7.80;1.48;;;;;;;;;;6237043;22;19999;-94
2023/03/07 05:30:34;;;;;;;5.53;0.63;;;;;;;;;;6238813;22;20015;-94
2023/03/07 05:33:00;;;;;;;3.85;1.23;;;;;;;;;;6235725;22;20338;-94
2023/03/07 05:35:26;;;;;;;14.68;2.05;;;;;;;;;;6235401;22;20330;-95
2023/03/07 05:37:52;;;;;;;3.38;0.75;;;;;;;;;;6233222;22;20016;-94
2023/03/07 05:40:18;;;;;;;8.60;0.68;;;;;;;;;;6231817;22;20020;-94
2023/03/07 05:43:05;;;;;;;5.00;0.80;;;;;;;;;;6232284;22;20011;-96
2023/03/07 05:45:32;;;;;;;7.78;2.20;;;;;;;;;;6258788;22;20157;-94
2023/03/07 05:47:58;;;;;;;13.95;0.85;;;;;;;;;;6232984;22;20000;-93
2023/03/07 05:50:30;;;;;;;6.85;0.57;;;;;;;;;;6229955;22;20174;-94
2023/03/07 05:53:08;;;;;;;2.60;0.82;;;;;;;;;;6232081;22;20384;-95
2023/03/07 05:55:37;;;;;;;5.55;0.55;;;;;;;;;;6280330;22;20381;-94
2023/03/07 05:58:05;;;;;;;8.77;1.38;;;;;;;;;;6278439;22;20346;-93
2023/03/07 06:00:31;;;;;;;12.43;1.02;;;;;;;;;;6278864;22;20007;-94
2023/03/07 06:02:58;;;;;;;4.18;1.00;;;;;;;;;;6231538;22;20042;-93
2023/03/07 06:05:30;;;;;;;7.80;1.02;;;;;;;;;;6226860;22;20341;-93
2023/03/07 06:08:03;;;;;;;7.55;1.08;;;;;;;;;;6279774;22;20004;-93
2023/03/07 06:10:33;;;;;;;6.25;0.77;;;;;;;;;;6279089;22;20008;-94
2023/03/07 06:13:02;;;;;;;3.63;0.80;;;;;;;;;;6222064;23;20012;-93
2023/03/07 06:15:28;;;;;;;7.93;0.80;;;;;;;;;;6222725;23;20016;-92
2023/03/07 06:17:57;;;;;;;1.45;0.43;;;;;;;;;;6251758;22;20004;-96
2023/03/07 06:20:24;;;;;;;4.70;0.80;;;;;;;;;;6229353;22;20007;-93
2023/03/07 06:22:50;;;;;;;0.17;0.13;;;;;;;;;;6229985;22;20585;-93
2023/03/07 06:25:20;;;;;;;4.50;0.50;;;;;;;;;;6274199;22;20004;-93
2023/03/07 06:27:47;;;;;;;4.68;1.27;;;;;;;;;;6274849;22;20030;-93
2023/03/07 06:30:21;;;;;;;5.45;0.95;;;;;;;;;;6252064;22;20011;-93
2023/03/07 06:33:08;;;;;;;7.05;1.10;;;;;;;;;;6274849;22;20069;-92
2023/03/07 06:35:34;;;;;;;1.90;0.80;;;;;;;;;;6251098;22;20494;-92
2023/03/07 06:38:00;;;;;;;12.18;1.33;;;;;;;;;;6223570;22;20069;-93
2023/03/07 06:40:29;;;;;;;8.35;0.82;;;;;;;;;;6223146;22;20023;-92
2023/03/07 06:42:55;;;;;;;10.00;2.15;;;;;;;;;;6227075;22;20449;-93
2023/03/07 06:45:21;;;;;;;8.02;1.05;;;;;;;;;;6222649;22;20384;-92
2023/03/07 06:47:47;;;;;;;4.88;0.88;;;;;;;;;;6273477;22;19999;-93
2023/03/07 06:50:14;;;;;;;11.68;1.48;;;;;;;;;;6223314;22;20024;-93
2023/03/07 06:52:51;;;;;;;;;;;;;;;;;;;;;
2023/03/07 06:55:26;;;;;;;11.02;1.33;;;;;;;;;;6275354;22;20478;-93
2023/03/07 06:57:55;;;;;;;6.65;1.10;;;;;;;;;;6274976;22;20016;-93
2023/03/07 07:00:22;;;;;;;14.48;1.80;;;;;;;;;;6225580;22;20061;-92
2023/03/07 07:02:48;;;;;;;8.77;1.08;;;;;;;;;;6224032;22;20341;-93
2023/03/07 07:05:15;;;;;;;9.32;1.10;;;;;;;;;;6223519;22;20043;-92
2023/03/07 07:07:42;;;;;;;6.57;1.65;;;;;;;;;;6222538;22;20004;-92
2023/03/07 07:10:08;;;;;;;3.33;1.05;;;;;;;;;;6223310;22;20008;-91
2023/03/07 07:12:37;;;;;;;3.97;0.63;;;;;;;;;;6275189;22;20010;-92
2023/03/07 07:15:04;;;;;;;3.92;1.00;;;;;;;;;;6226561;22;20022;-92
2023/03/07 07:17:39;;;;;;;7.90;1.17;;;;;;;;;;6275251;22;20098;-92
2023/03/07 07:20:10;;;;;;;9.93;2.42;;;;;;;;;;6226109;22;20399;-92
2023/03/07 07:22:36;;;;;;;3.88;1.42;;;;;;;;;;6223113;22;20035;-92
2023/03/07 07:25:03;;;;;;;4.55;1.42;;;;;;;;;;6274103;22;20030;-91
2023/03/07 07:27:29;;;;;;;11.48;2.20;;;;;;;;;;6222756;22;20017;-92
2023/03/07 07:29:55;;;;;;;10.57;1.05;;;;;;;;;;6224406;22;20066;-93
2023/03/07 07:32:21;;;;;;;7.15;1.08;;;;;;;;;;6224849;22;20022;-93
2023/03/07 07:34:54;;;;;;;4.38;0.82;;;;;;;;;;6274978;22;20007;-92
2023/03/07 07:37:20;;;;;;;1.98;0.55;;;;;;;;;;6224339;22;20031;-92
2023/03/07 07:39:48;;;;;;;2.58;1.00;;;;;;;;;;6223110;22;20029;-92
2023/03/07 07:42:21;;;;;;;4.93;0.70;;;;;;;;;;6273589;22;20463;-92
2023/03/07 07:44:47;;;;;;;1.98;0.77;;;;;;;;;;6223774;22;20034;-91
2023/03/07 07:47:14;;;;;;;6.07;0.95;;;;;;;;;;6251512;22;20014;-92
2023/03/07 07:49:47;;;;;;;15.52;1.30;;;;;;;;;;6224698;22;20050;-90
2023/03/07 07:52:13;;;;;;;8.57;1.08;;;;;;;;;;6276247;22;20065;-92
2023/03/07 07:54:39;;;;;;;15.25;0.90;;;;;;;;;;6224326;22;20453;-92
2023/03/07 07:57:06;;;;;;;7.60;1.40;;;;;;;;;;6224503;22;20126;-91
2023/03/07 07:59:33;;;;;;;3.35;0.73;;;;;;;;;;6277706;22;20267;-92
2023/03/07 08:01:59;;;;;;;10.68;0.52;;;;;;;;;;6227047;22;20043;-92
2023/03/07 08:04:25;;;;;;;3.85;0.85;;;;;;;;;;6227489;22;20031;-92
2023/03/07 08:06:52;;;;;;;6.35;3.42;;;;;;;;;;6227314;22;20007;-91
2023/03/07 08:12:56;;;;;;;3.72;0.57;;;;;;;;;;6260179;22;20018;-91
2023/03/07 08:15:22;;;;;;;5.80;1.20;;;;;;;;;;6229707;22;20043;-92
2023/03/07 08:17:50;;;;;;;11.05;1.15;;;;;;;;;;6226766;22;20003;-91
2023/03/07 08:20:16;;;;;;;4.70;1.30;;;;;;;;;;6278046;22;20042;-90
2023/03/07 08:22:48;;;;;;;7.88;1.38;;;;;;;;;;6277390;22;20004;-91
2023/03/07 08:25:19;;;;;;;5.28;0.60;;;;;;;;;;6279575;22;20369;-91
2023/03/07 08:27:45;;;;;;;7.80;1.70;;;;;;;;;;6279826;22;20011;-91
2023/03/07 08:30:17;;;;;;;11.85;1.35;;;;;;;;;;6228897;22;20011;-92
2023/03/07 08:32:43;;;;;;;8.60;1.25;;;;;;;;;;6229698;22;20397;-91
2023/03/07 08:35:10;;;;;;;30.80;1.40;;;;;;;;;;6280765;22;20011;-92
2023/03/07 08:38:36;;;;;;;1.83;0.73;;;;;;;;;;6232401;22;20014;-93
2023/03/07 08:41:04;;;;;;;5.72;1.27;;;;;;;;;;6283699;22;20016;-92
2023/03/07 08:43:49;;;;;;;;;;;;;;;;;;;;;
2023/03/07 08:46:56;;;;;;;2.90;1.02;;;;;;;;;;6293898;22;20011;-91
2023/03/07 08:49:23;;;;;;;9.32;1.13;;;;;;;;;;6145013;23;20692;-92
2023/03/07 08:51:54;;;;;;;3.35;1.38;;;;;;;;;;6141072;23;20323;-91
2023/03/07 08:54:20;;;;;;;6.68;1.10;;;;;;;;;;6114733;23;20016;-91
2023/03/07 08:56:46;;;;;;;11.50;1.25;;;;;;;;;;6111479;23;20013;-92
2023/03/07 08:59:15;;;;;;;25.70;1.45;;;;;;;;;;6132812;23;20384;-93
2023/03/07 09:01:41;;;;;;;10.30;1.63;;;;;;;;;;6190953;23;20086;-94
2023/03/07 09:04:07;;;;;;;5.78;1.33;;;;;;;;;;6199093;23;20031;-92
2023/03/07 09:06:57;;;;;;;11.55;1.20;;;;;;;;;;6247762;23;20499;-92
2023/03/07 09:09:23;;;;;;;8.65;0.85;;;;;;;;;;6248333;23;20349;-92
2023/03/07 09:11:55;;;;;;;5.13;0.90;;;;;;;;;;6195430;23;20008;-92
2023/03/07 09:14:21;;;;;;;2.55;0.90;;;;;;;;;;6195096;23;20011;-92
2023/03/07 09:16:47;;;;;;;1.70;0.45;;;;;;;;;;6247447;23;20418;-93
2023/03/07 09:19:13;;;;;;;2.53;0.60;;;;;;;;;;6197866;23;20377;-92
2023/03/07 09:21:39;;;;;;;7.22;0.77;;;;;;;;;;6197007;23;20004;-91
2023/03/07 09:24:06;;;;;;;2.83;1.35;;;;;;;;;;6248312;23;20200;-91
2023/03/07 09:26:32;;;;;;;5.07;1.73;;;;;;;;;;6249372;23;20442;-91
2023/03/07 09:28:58;;;;;;;6.00;1.13;;;;;;;;;;6247698;23;20011;-92
2023/03/07 09:31:25;;;;;;;1.60;0.75;;;;;;;;;;6247852;23;20412;-91
2023/03/07 09:33:51;;;;;;;10.82;1.83;;;;;;;;;;6245943;23;20012;-92
2023/03/07 09:36:20;;;;;;;1.25;0.52;;;;;;;;;;6245429;23;20501;-92
2023/03/07 09:38:47;;;;;;;3.90;1.20;;;;;;;;;;6193452;23;20300;-92
2023/03/07 09:41:31;;;;;;;3.88;1.15;;;;;;;;;;6244238;23;20051;-91
2023/03/07 09:44:18;;;;;;;6.32;1.25;;;;;;;;;;6246208;23;20548;-92
2023/03/07 09:46:44;;;;;;;3.40;0.80;;;;;;;;;;6200887;23;20496;-92
2023/03/07 09:49:23;;;;;;;9.18;2.53;;;;;;;;;;6246028;22;20027;-92
2023/03/07 09:51:51;;;;;;;9.32;2.05;;;;;;;;;;6223804;22;20016;-92
2023/03/07 09:54:41;;;;;;;3.13;1.05;;;;;;;;;;6276611;22;20004;-92
2023/03/07 09:57:14;;;;;;;6.55;1.30;;;;;;;;;;6239331;22;20041;-92
2023/03/07 10:00:51;;;;;;;6.18;1.00;;;;;;;;;;6277217;22;20010;-92
2023/03/07 10:03:17;;;;;;;6.03;1.40;;;;;;;;;;6256576;22;20014;-92
2023/03/07 10:05:50;;;;;;;4.93;1.17;;;;;;;;;;6276172;22;20437;-92
2023/03/07 10:08:19;;;;;;;10.23;1.23;;;;;;;;;;6250530;22;20004;-93
2023/03/07 10:10:48;;;;;;;10.40;1.30;;;;;;;;;;6274905;22;20399;-92
2023/03/07 10:13:33;;;;;;;19.73;1.92;;;;;;;;;;6275083;22;20018;-92
2023/03/07 10:16:17;;;;;;;5.65;1.20;;;;;;;;;;6275696;22;20030;-93
2023/03/07 10:19:02;;;;;;;16.20;2.17;;;;;;;;;;6277610;22;20007;-93
2023/03/07 10:21:48;;;;;;;5.53;1.58;;;;;;;;;;6274570;22;20003;-92
2023/03/07 10:24:22;;;;;;;4.82;1.15;;;;;;;;;;6275392;22;20037;-92
2023/03/07 10:27:06;;;;;;;3.80;1.63;;;;;;;;;;6278981;22;20007;-93
2023/03/07 10:29:56;;;;;;;3.13;1.45;;;;;;;;;;6288199;22;20273;-95
2023/03/07 10:32:41;;;;;;;4.22;0.60;;;;;;;;;;6286305;22;20073;-93
2023/03/07 10:35:10;;;;;;;7.50;1.13;;;;;;;;;;6281926;22;20072;-93
2023/03/07 10:37:50;;;;;;;13.48;1.50;;;;;;;;;;6279692;22;20022;-93
2023/03/07 10:40:30;;;;;;;1.83;0.80;;;;;;;;;;6280083;22;20460;-92
2023/03/07 10:42:59;;;;;;;13.75;1.88;;;;;;;;;;6288634;22;20011;-93
2023/03/07 10:45:37;;;;;;;6.10;1.30;;;;;;;;;;6259179;22;20038;-93
2023/03/07 10:48:15;;;;;;;6.78;1.50;;;;;;;;;;6225019;23;20014;-92
2023/03/07 10:50:49;;;;;;;6.70;1.10;;;;;;;;;;6248202;22;20028;-94
2023/03/07 10:53:23;;;;;;;6.53;1.10;;;;;;;;;;6221873;23;20429;-92
2023/03/07 10:55:49;;;;;;;9.95;1.15;;;;;;;;;;6223302;23;20015;-93
2023/03/07 10:58:21;;;;;;;13.75;1.48;;;;;;;;;;6223370;23;20008;-92
2023/03/07 11:16:28;;;;;;;7.03;1.48;;;;;;;;;;6292054;22;19915;-92
2023/03/07 11:18:54;;;;;;;4.35;0.90;;;;;;;;;;6263501;22;20018;-92
2023/03/07 11:21:29;;;;;;;5.38;1.48;;;;;;;;;;6266960;22;20017;-93
2023/03/07 11:24:19;;;;;;;1.98;1.13;;;;;;;;;;6289438;22;20484;-92
2023/03/07 11:27:01;;;;;;;5.30;0.55;;;;;;;;;;6284494;22;20273;-92
2023/03/07 11:33:31;;;;;;;4.82;1.13;;;;;;;;;;6216676;23;20012;-92
2023/03/07 11:36:08;;;;;;;3.35;0.80;;;;;;;;;;6190355;23;20487;-92
2023/03/07 11:38:57;;;;;;;13.80;1.45;;;;;;;;;;6272083;22;20038;-91
2023/03/07 11:41:34;;;;;;;12.38;1.80;;;;;;;;;;6271385;22;20011;-91
2023/03/07 11:44:17;;;;;;;10.93;1.45;;;;;;;;;;6281092;22;20015;-92
2023/03/07 11:46:52;;;;;;;6.32;1.35;;;;;;;;;;6281901;22;20034;-92
2023/03/07 11:52:41;;;;;;;18.50;1.98;;;;;;;;;;6314957;22;20025;-92
2023/03/07 11:55:23;;;;;;;9.52;1.73;;;;;;;;;;6292793;22;20027;-93
2023/03/07 11:58:03;;;;;;;8.63;1.10;;;;;;;;;;6296069;22;20007;-92
2023/03/07 12:00:48;;;;;;;5.93;1.50;;;;;;;;;;6293530;22;20008;-92
2023/03/07 12:06:38;;;;;;;5.15;1.42;;;;;;;;;;6172427;23;20014;-94
2023/03/07 12:09:23;;;;;;;7.25;1.27;;;;;;;;;;6287216;22;20051;-94
2023/03/07 12:12:10;;;;;;;12.70;1.35;;;;;;;;;;6289447;22;20012;-94
2023/03/07 12:15:02;;;;;;;6.93;1.27;;;;;;;;;;6291349;22;20010;-93
2023/03/07 12:17:48;;;;;;;10.52;1.23;;;;;;;;;;6243506;22;20012;-94
2023/03/07 12:20:53;;;;;;;17.88;2.38;;;;;;;;;;6280882;22;20135;-94
2023/03/07 12:23:22;;;;;;;5.85;1.85;;;;;;;;;;6195953;23;20015;-94
2023/03/07 12:25:50;;;;;;;4.18;0.90;;;;;;;;;;6192320;23;20039;-94
2023/03/07 12:28:22;;;;;;;9.55;1.40;;;;;;;;;;6235230;22;20012;-94
2023/03/07 12:30:51;;;;;;;6.57;1.58;;;;;;;;;;6281797;22;20015;-94
2023/03/07 12:33:42;;;;;;;10.05;1.20;;;;;;;;;;6280936;22;20004;-95
2023/03/07 12:36:11;;;;;;;2.72;1.38;;;;;;;;;;6278033;22;20023;-95
2023/03/07 12:38:47;;;;;;;2.85;0.95;;;;;;;;;;6275122;22;20247;-94
2023/03/07 12:41:30;;;;;;;4.47;0.93;;;;;;;;;;6277412;22;20410;-94
2023/03/07 12:44:03;;;;;;;7.65;1.25;;;;;;;;;;6275111;22;20059;-94
2023/03/07 12:46:39;;;;;;;6.45;1.15;;;;;;;;;;6275554;22;20438;-95
2023/03/07 12:49:05;;;;;;;10.35;0.90;;;;;;;;;;6277459;22;20398;-95
2023/03/07 12:51:35;;;;;;;4.43;0.98;;;;;;;;;;6277710;22;20251;-95
2023/03/07 12:54:20;;;;;;;5.07;1.00;;;;;;;;;;6278873;22;20038;-94
2023/03/07 12:56:54;;;;;;;3.42;1.13;;;;;;;;;;6274371;22;20003;-94
2023/03/07 12:59:21;;;;;;;5.60;0.98;;;;;;;;;;6277790;22;20083;-94
2023/03/07 13:01:53;;;;;;;8.75;1.13;;;;;;;;;;6259848;22;20000;-95
2023/03/07 13:04:29;;;;;;;6.22;0.95;;;;;;;;;;6277483;22;20401;-95
2023/03/07 13:06:55;;;;;;;;;;;;;;;;;;6274488;22;20034;-94
2023/03/07 13:09:23;;;;;;;8.13;1.30;;;;;;;;;;6275192;22;19903;-94
2023/03/07 13:12:07;;;;;;;9.63;0.40;;;;;;;;;;6274800;22;20003;-94
2023/03/07 13:14:41;;;;;;;0.60;0.35;;;;;;;;;;6278261;22;20055;-94
2023/03/07 13:17:11;;;;;;;3.42;0.80;;;;;;;;;;6282020;22;20004;-94
2023/03/07 13:19:38;;;;;;;2.33;0.80;;;;;;;;;;6288470;22;20030;-95
2023/03/07 13:22:27;;;;;;;7.05;0.68;;;;;;;;;;6314298;22;20003;-94
2023/03/07 13:24:56;;;;;;;6.10;0.98;;;;;;;;;;6312947;22;20003;-95
2023/03/07 13:27:25;;;;;;;9.55;2.10;;;;;;;;;;6310991;22;20017;-94
2023/03/07 13:30:09;;;;;;;10.07;1.30;;;;;;;;;;6310471;22;20547;-94
2023/03/07 13:32:51;;;;;;;3.38;0.98;;;;;;;;;;6306767;22;20348;-95
2023/03/07 13:35:32;;;;;;;3.13;1.02;;;;;;;;;;6307092;22;20053;-94
2023/03/07 13:38:05;;;;;;;10.25;1.02;;;;;;;;;;6305691;22;20049;-93
2023/03/07 13:40:34;;;;;;;11.73;3.70;;;;;;;;;;6303581;22;20061;-94
2023/03/07 13:43:01;;;;;;;5.57;1.70;;;;;;;;;;6304696;22;20460;-94
2023/03/07 13:45:39;;;;;;;4.68;1.30;;;;;;;;;;6306485;22;20003;-94
2023/03/07 13:48:11;;;;;;;4.18;0.88;;;;;;;;;;6307429;22;20092;-94
2023/03/07 13:50:43;;;;;;;8.88;1.40;;;;;;;;;;6306521;22;20027;-94
2023/03/07 13:53:12;;;;;;;2.00;0.63;;;;;;;;;;6305715;22;20030;-94
2023/03/07 13:55:40;;;;;;;11.10;1.08;;;;;;;;;;6306969;22;20296;-95
2023/03/07 13:58:30;;;;;;;5.53;2.25;;;;;;;;;;6308755;22;20011;-92
2023/03/07 14:00:58;;;;;;;8.68;0.65;;;;;;;;;;6309288;22;20030;-93
2023/03/07 14:03:28;;;;;;;6.25;1.30;;;;;;;;;;6309919;22;20011;-93
2023/03/07 14:05:55;;;;;;;9.80;1.50;;;;;;;;;;6309631;22;20057;-94
2023/03/07 14:08:27;;;;;;;6.45;1.00;;;;;;;;;;6307028;22;20007;-94
2023/03/07 14:10:53;;;;;;;6.50;1.50;;;;;;;;;;6306648;22;20029;-93
2023/03/07 14:13:29;;;;;;;4.47;1.27;;;;;;;;;;6258392;22;20015;-94
2023/03/07 14:15:55;;;;;;;3.75;0.80;;;;;;;;;;6308475;22;20127;-94
2023/03/07 14:18:34;;;;;;;5.43;0.80;;;;;;;;;;6305364;22;20011;-94
2023/03/07 14:21:08;;;;;;;11.57;1.13;;;;;;;;;;6277999;22;20007;-94
2023/03/07 14:23:52;;;;;;;4.47;1.58;;;;;;;;;;6280313;22;20003;-93
2023/03/07 14:26:27;;;;;;;4.18;1.02;;;;;;;;;;6275559;22;20039;-93
2023/03/07 14:29:00;;;;;;;7.38;1.33;;;;;;;;;;6277670;22;20008;-95
2023/03/07 14:31:28;;;;;;;3.13;0.98;;;;;;;;;;6279214;22;20007;-94
2023/03/07 14:33:57;;;;;;;6.90;1.38;;;;;;;;;;6280666;22;20008;-94
2023/03/07 14:36:25;;;;;;;8.52;1.50;;;;;;;;;;6280463;22;20004;-94
2023/03/07 14:38:57;;;;;;;2.50;0.45;;;;;;;;;;6277077;22;20004;-94
2023/03/07 14:41:44;;;;;;;8.30;0.75;;;;;;;;;;6279218;22;20011;-93
2023/03/07 14:44:20;;;;;;;1.92;0.63;;;;;;;;;;6277804;22;20007;-94
2023/03/07 14:46:49;;;;;;;3.22;0.80;;;;;;;;;;6280641;22;20015;-94
2023/03/07 14:49:16;;;;;;;5.20;0.82;;;;;;;;;;6278735;22;20000;-93
2023/03/07 14:51:43;;;;;;;6.57;0.80;;;;;;;;;;6279419;22;20066;-93
2023/03/07 14:54:15;;;;;;;7.28;0.93;;;;;;;;;;6280000;22;20012;-94
2023/03/07 14:56:41;;;;;;;6.15;0.50;;;;;;;;;;6279613;22;20012;-93
2023/03/07 14:59:10;;;;;;;6.68;0.93;;;;;;;;;;6279240;22;20474;-93
2023/03/07 15:01:38;;;;;;;1.88;0.50;;;;;;;;;;6276584;22;20003;-91
2023/03/07 15:04:20;;;;;;;6.13;0.98;;;;;;;;;;6278400;22;20368;-91
2023/03/07 15:06:46;;;;;;;13.75;1.20;;;;;;;;;;6276009;22;20038;-90
2023/03/07 15:09:16;;;;;;;2.35;0.50;;;;;;;;;;6278718;22;20034;-92
2023/03/07 15:11:54;;;;;;;4.50;0.40;;;;;;;;;;6254466;22;20019;-92
2023/03/07 15:14:23;;;;;;;1.38;0.50;;;;;;;;;;6278057;22;20038;-91
2023/03/07 15:16:56;;;;;;;11.00;1.05;;;;;;;;;;6274395;22;20015;-90
2023/03/07 15:19:28;;;;;;;1.10;0.60;;;;;;;;;;6272533;22;20092;-90
2023/03/07 15:21:55;;;;;;;23.58;2.17;;;;;;;;;;6272780;22;20004;-90
2023/03/07 15:24:43;;;;;;;4.05;0.75;;;;;;;;;;6273484;22;20015;-90
2023/03/07 15:27:10;;;;;;;0.63;0.38;;;;;;;;;;6273525;22;20008;-92
2023/03/07 15:29:38;;;;;;;0.90;0.40;;;;;;;;;;6277675;22;20590;-93
2023/03/07 15:32:06;;;;;;;2.38;0.17;;;;;;;;;;6250341;22;20004;-93
2023/03/07 15:34:33;;;;;;;4.43;0.30;;;;;;;;;;6278486;22;20095;-94
2023/03/07 15:37:20;;;;;;;0.88;0.20;;;;;;;;;;6276735;22;20353;-95
2023/03/07 15:39:55;;;;;;;1.08;0.30;;;;;;;;;;6276999;22;20461;-96
2023/03/07 15:42:22;;;;;;;1.67;0.50;;;;;;;;;;6279372;22;20015;-95
2023/03/07 15:44:58;;;;;;;1.77;0.30;;;;;;;;;;6278715;22;20095;-94
2023/03/07 15:47:25;;;;;;;0.85;0.30;;;;;;;;;;6280968;22;20023;-95
2023/03/07 15:49:53;;;;;;;1.08;0.35;;;;;;;;;;6282055;22;20007;-95
2023/03/07 15:52:40;;;;;;;0.63;0.35;;;;;;;;;;6282348;22;20035;-95
2023/03/07 15:55:19;;;;;;;2.60;0.25;;;;;;;;;;6278079;22;20020;-95
2023/03/07 15:57:54;;;;;;;1.67;0.40;;;;;;;;;;6278881;22;20079;-95
2023/03/07 16:00:21;;;;;;;2.83;0.57;;;;;;;;;;6278574;22;20019;-95
2023/03/07 16:02:50;;;;;;;4.40;0.57;;;;;;;;;;6281514;22;20018;-94
2023/03/07 16:05:20;;;;;;;2.60;0.47;;;;;;;;;;6279860;22;20014;-95
2023/03/07 16:07:52;;;;;;;2.63;0.35;;;;;;;;;;6278317;22;20057;-95
2023/03/07 16:10:18;;;;;;;3.40;0.57;;;;;;;;;;6279272;22;20499;-95